createdAt,value
2019-03-08T00:00:01.355Z,0.2
2019-03-08T00:15:01.451Z,0.1
2019-03-08T00:20:01.727Z,0.1
2019-03-08T00:30:01.456Z,0.1
2019-03-08T00:45:01.495Z,0.0
2019-03-08T00:50:01.409Z,0.1
2019-03-08T01:00:01.935Z,0.1
2019-03-08T01:15:01.507Z,0.1
2019-03-08T01:30:01.509Z,0.1
2019-03-08T01:45:01.576Z,0.0
2019-03-08T01:55:01.453Z,0.0
2019-03-08T02:00:06.381Z,0.0
2019-03-08T02:15:01.730Z,0.0
2019-03-08T02:20:01.409Z,0.0
2019-03-08T02:30:01.548Z,0.0
2019-03-08T02:45:01.590Z,0.0
2019-03-08T02:55:01.547Z,0.1
2019-03-08T03:00:01.444Z,0.1
2019-03-08T03:05:01.541Z,0.1
2019-03-08T03:15:01.553Z,0.1
2019-03-08T03:30:01.546Z,0.1
2019-03-08T03:45:02.574Z,0.1
2019-03-08T04:00:01.572Z,0.1
2019-03-08T04:15:01.557Z,0.2
2019-03-08T04:25:01.489Z,0.2
2019-03-08T04:30:01.464Z,0.2
2019-03-08T04:35:01.539Z,0.2
2019-03-08T04:45:02.146Z,0.1
2019-03-08T04:50:01.407Z,0.1
2019-03-08T05:00:01.623Z,0.1
2019-03-08T05:10:01.597Z,0.1
2019-03-08T05:15:01.582Z,0.0
2019-03-08T05:30:01.570Z,0.1
2019-03-08T05:40:01.527Z,0.1
2019-03-08T05:45:01.595Z,0.1
2019-03-08T06:00:01.667Z,0.0
2019-03-08T06:10:01.572Z,0.0
2019-03-08T06:15:01.499Z,0.0
2019-03-08T06:30:01.575Z,0.0
2019-03-08T06:40:01.496Z,0.0
2019-03-08T06:45:01.515Z,0.0
2019-03-08T07:00:06.496Z,0.1
2019-03-08T07:05:01.538Z,0.1
2019-03-08T07:15:02.256Z,0.2
2019-03-08T07:20:01.418Z,0.2
2019-03-08T07:25:01.436Z,0.5
2019-03-08T07:30:01.770Z,0.5
2019-03-08T07:35:01.569Z,0.6
2019-03-08T07:40:01.405Z,0.6
2019-03-08T07:45:01.507Z,0.7
2019-03-08T07:55:01.392Z,0.7
2019-03-08T08:00:01.472Z,0.6
2019-03-08T08:05:01.650Z,0.7
2019-03-08T08:10:01.490Z,0.6
2019-03-08T08:15:01.498Z,0.6
2019-03-08T08:20:01.846Z,0.5
2019-03-08T08:25:01.682Z,0.6
2019-03-08T08:30:01.487Z,0.6
2019-03-08T08:35:02.017Z,0.7
2019-03-08T08:40:01.496Z,0.6
2019-03-08T08:45:01.524Z,0.6
2019-03-08T08:50:02.545Z,0.7
2019-03-08T08:55:01.536Z,0.7
2019-03-08T09:00:01.433Z,0.7
2019-03-08T09:05:06.501Z,0.6
2019-03-08T09:10:01.433Z,0.6
2019-03-08T09:15:02.026Z,0.6
2019-03-08T09:20:01.507Z,0.6
2019-03-08T09:25:01.576Z,0.7
2019-03-08T09:30:01.452Z,0.7
2019-03-08T09:35:01.514Z,0.7
2019-03-08T09:40:01.423Z,0.5
2019-03-08T10:00:01.206Z,0.7
2019-03-08T10:05:00.749Z,0.7
2019-03-08T10:15:00.746Z,0.6
2019-03-08T10:25:00.971Z,0.8
2019-03-08T10:30:00.630Z,0.9
2019-03-08T10:35:01.248Z,0.9
2019-03-08T10:40:00.685Z,0.8
2019-03-08T10:45:00.805Z,0.7
2019-03-08T10:50:00.716Z,0.3
2019-03-08T10:55:01.179Z,0.2
2019-03-08T11:00:00.701Z,0.2
2019-03-08T11:05:00.749Z,0.2
2019-03-08T11:10:00.716Z,0.5
2019-03-08T11:15:01.175Z,0.6
2019-03-08T11:20:00.661Z,0.6
2019-03-08T11:25:09.008Z,0.6
2019-03-08T11:30:00.836Z,0.8
2019-03-08T11:35:00.951Z,0.5
2019-03-08T11:40:04.282Z,0.4
2019-03-08T11:45:00.756Z,0.2
2019-03-08T11:50:00.664Z,0.2
2019-03-08T12:00:00.783Z,0.3
2019-03-08T12:15:00.758Z,0.7
2019-03-08T12:20:00.690Z,0.5
2019-03-08T12:25:01.979Z,0.5
2019-03-08T12:30:00.716Z,0.3
2019-03-08T12:35:00.925Z,0.3
2019-03-08T12:40:00.660Z,0.2
2019-03-08T12:45:00.725Z,0.2
2019-03-08T12:50:00.688Z,0.0
2019-03-08T13:00:01.142Z,0.2
2019-03-08T13:05:00.806Z,0.3
2019-03-08T13:10:00.720Z,0.2
2019-03-08T13:15:00.747Z,0.2
2019-03-08T13:20:00.664Z,0.1
2019-03-08T13:25:00.751Z,0.1
2019-03-08T13:30:00.670Z,0.0
2019-03-08T13:35:00.821Z,0.0
2019-03-08T13:40:01.228Z,0.0
2019-03-08T13:45:00.842Z,0.0
2019-03-08T13:50:00.659Z,0.0
2019-03-08T13:55:00.806Z,0.0
2019-03-08T14:00:00.681Z,0.0
2019-03-08T14:05:00.705Z,0.0
2019-03-08T14:10:00.698Z,0.0
2019-03-08T14:15:00.786Z,0.3
2019-03-08T14:20:01.179Z,0.3
2019-03-08T14:25:01.016Z,0.3
2019-03-08T14:30:01.134Z,0.3
2019-03-08T14:35:00.842Z,0.3
2019-03-08T14:40:01.374Z,0.0
2019-03-08T14:45:09.022Z,0.1
2019-03-08T14:50:00.892Z,0.1
2019-03-08T14:55:01.474Z,0.2
2019-03-08T15:00:00.793Z,0.2
2019-03-08T15:05:15.336Z,0.2
2019-03-08T15:10:07.648Z,0.2
2019-03-08T15:15:00.743Z,0.2
2019-03-08T15:20:00.943Z,0.2
2019-03-08T15:25:00.801Z,0.2
2019-03-08T15:30:00.670Z,0.1
2019-03-08T15:35:00.721Z,0.1
2019-03-08T15:40:00.675Z,0.1
2019-03-08T15:45:07.127Z,0.0
2019-03-08T15:50:09.821Z,0.0
2019-03-08T15:55:00.820Z,0.0
2019-03-08T16:00:01.403Z,0.0
2019-03-08T16:05:00.862Z,0.0
2019-03-08T16:10:00.718Z,0.0
2019-03-08T16:15:00.753Z,0.0
2019-03-08T16:20:04.192Z,0.0
2019-03-08T16:25:01.262Z,0.0
2019-03-08T16:30:10.825Z,0.1
2019-03-08T16:35:00.753Z,0.1
2019-03-08T16:50:01.009Z,0.0
2019-03-08T17:10:01.338Z,0.0
2019-03-08T17:15:01.398Z,0.0
2019-03-08T17:20:01.270Z,0.0
2019-03-08T17:25:01.358Z,0.0
2019-03-08T17:30:01.293Z,0.0
2019-03-08T17:35:01.333Z,0.0
2019-03-08T17:40:01.283Z,0.0
2019-03-08T17:45:01.399Z,0.0
2019-03-08T17:50:01.349Z,0.0
2019-03-08T17:55:01.355Z,0.0
2019-03-08T18:00:01.279Z,0.0
2019-03-08T18:05:01.474Z,0.0
2019-03-08T18:10:01.294Z,0.0
2019-03-08T18:15:01.381Z,0.1
2019-03-08T18:20:01.322Z,0.1
2019-03-08T18:25:01.901Z,0.1
2019-03-08T18:30:02.383Z,0.1
2019-03-08T18:35:01.366Z,0.1
2019-03-08T18:45:01.542Z,0.2
2019-03-08T18:50:01.324Z,0.5
2019-03-08T18:55:01.327Z,0.6
2019-03-08T19:00:01.345Z,0.6
2019-03-08T19:05:01.323Z,0.8
2019-03-08T19:10:01.326Z,0.8
2019-03-08T19:15:01.482Z,0.8
2019-03-08T19:20:01.321Z,0.7
2019-03-08T19:25:01.451Z,0.9
2019-03-08T19:30:01.338Z,0.8
2019-03-08T19:35:01.452Z,0.7
2019-03-08T19:45:01.430Z,0.5
2019-03-08T19:50:01.300Z,0.4
2019-03-08T19:55:01.396Z,0.3
2019-03-08T20:00:01.721Z,0.2
2019-03-08T20:05:01.391Z,0.1
2019-03-08T20:10:01.325Z,0.2
2019-03-08T20:15:01.471Z,0.2
2019-03-08T20:20:01.558Z,0.2
2019-03-08T20:25:01.409Z,0.3
2019-03-08T20:30:01.350Z,0.3
2019-03-08T20:35:01.398Z,0.3
2019-03-08T20:40:01.334Z,0.2
2019-03-08T20:45:01.471Z,0.2
2019-03-08T20:55:01.412Z,0.3
2019-03-08T21:00:01.765Z,0.3
2019-03-08T21:05:01.382Z,0.3
2019-03-08T21:10:01.320Z,0.2
2019-03-08T21:15:01.356Z,0.2
2019-03-08T21:20:01.315Z,0.2
2019-03-08T21:25:02.878Z,0.2
2019-03-08T21:30:01.327Z,0.2
2019-03-08T21:35:01.388Z,0.2
2019-03-08T21:45:01.389Z,0.1
2019-03-08T21:50:01.655Z,0.1
2019-03-08T21:55:01.460Z,0.1
2019-03-08T22:00:01.383Z,0.1
2019-03-08T22:05:01.420Z,0.1
2019-03-08T22:10:02.423Z,0.1
2019-03-08T22:15:01.525Z,0.1
2019-03-08T22:20:01.345Z,0.1
2019-03-08T22:25:01.472Z,0.1
2019-03-08T22:30:01.422Z,0.1
2019-03-08T22:45:01.423Z,0.1
2019-03-08T23:00:01.436Z,0.1
2019-03-08T23:10:01.410Z,0.2
2019-03-08T23:15:01.416Z,0.2
2019-03-08T23:20:01.346Z,0.2
2019-03-08T23:25:01.402Z,0.2
2019-03-08T23:30:01.388Z,0.3
2019-03-08T23:35:06.552Z,0.3
2019-03-08T23:40:01.779Z,0.3
2019-03-08T23:45:01.361Z,0.3
2019-03-08T23:55:01.433Z,0.4
